< < Back
Terminal Aerodrome Forecast


Current Version              Previous Versions:   1  2  3  4  5  6  7  8  9  

Terminal Aerodrome Forecast

070
FTUS42 KILM 231100
TAFFLO
TAF
KFLO 231120Z 2312/2412 00000KT 2SM BR BKN008
      TEMPO 2312/2313 1/4SM FG VV002
     FM231500 22006KT P6SM SCT015 SCT120
     FM231900 21007KT P6SM VCTS BKN040CB
     FM240100 21007KT P6SM FEW030 SCT200
     FM240600 VRB03KT 5SM BR SKC=

Latest METAR

605
SAUS70 KWBC 231200 RRH
MTRFLO
METAR KFLO 231153Z 00000KT 1/4SM FG VV002 24/23 A3007 RMK AO2 SLP180
T02390228 10244 20228 50003


USA.gov is the U.S. government's official web portal to all federal, state and local government web resources and services.